Time;durP1;ratioP1;P1;durP2;ratioP2;P2;SDS_P1;SDS_P2;PMS_P1;PMS_P2;Temp;Humidity;BMP_temperature;BMP_pressure;BME280_temperature;BME280_humidity;BME280_pressure;Samples;Min_cycle;Max_cycle;Signal;HPM_P1;HPM_P2
2024/04/03 00:01:36;;;;;;;;;;;;;;;6.03;100.00;95298.72;10416250;28;2986;-73
2024/04/03 00:06:37;;;;;;;;;;;;;;;6.01;100.00;95299.00;10417230;28;2870;-73
2024/04/03 00:11:39;;;;;;;;;;;;;;;5.96;100.00;95289.06;10404444;28;2892;-74
2024/04/03 00:16:41;;;;;;;;;;;;;;;5.89;100.00;95293.00;10400892;28;2678;-74
2024/04/03 00:21:42;;;;;;;;;;;;;;;6.04;100.00;95282.47;10421295;28;2764;-74
2024/04/03 00:26:44;;;;;;;;;;;;;;;5.90;100.00;95278.59;10424110;28;2818;-74
2024/04/03 00:31:45;;;;;;;;;;;;;;;5.90;100.00;95274.06;10416891;28;2886;-78
2024/04/03 00:36:47;;;;;;;;;;;;;;;5.82;100.00;95271.88;10417238;28;2812;-73
2024/04/03 00:41:48;;;;;;;;;;;;;;;5.92;100.00;95271.19;10406554;28;2800;-74
2024/04/03 00:46:50;;;;;;;;;;;;;;;5.75;100.00;95260.63;10422227;28;2897;-73
2024/04/03 00:51:53;;;;;;;;;;;;;;;5.86;100.00;95264.19;10421073;28;2807;-72
2024/04/03 00:56:54;;;;;;;;;;;;;;;5.77;100.00;95249.69;10420394;28;2845;-72
2024/04/03 01:01:56;;;;;;;;;;;;;;;5.74;100.00;95232.34;10421321;28;2840;-73
2024/04/03 01:06:58;;;;;;;;;;;;;;;5.61;100.00;95235.47;10417602;28;2746;-75
2024/04/03 01:11:59;;;;;;;;;;;;;;;5.59;100.00;95233.03;10425816;28;2812;-74
2024/04/03 01:17:01;;;;;;;;;;;;;;;5.60;100.00;95217.88;10420697;28;2708;-73
2024/04/03 01:22:04;;;;;;;;;;;;;;;5.55;100.00;95215.97;10409063;28;2841;-75
2024/04/03 01:27:05;;;;;;;;;;;;;;;5.49;100.00;95213.50;10431428;28;2880;-74
2024/04/03 01:32:07;;;;;;;;;;;;;;;5.48;100.00;95210.03;10407321;28;2843;-73
2024/04/03 01:37:09;;;;;;;;;;;;;;;5.43;100.00;95205.47;10413639;28;2797;-73
2024/04/03 01:42:10;;;;;;;;;;;;;;;5.34;100.00;95196.34;10416957;28;2962;-75
2024/04/03 01:47:12;;;;;;;;;;;;;;;5.30;100.00;95186.44;10412076;28;2755;-74
2024/04/03 01:52:14;;;;;;;;;;;;;;;5.27;100.00;95187.72;10420787;28;2745;-74
2024/04/03 01:57:16;;;;;;;;;;;;;;;5.24;100.00;95177.59;10421432;28;2901;-74
2024/04/03 02:02:18;;;;;;;;;;;;;;;5.14;100.00;95174.84;10419469;28;2803;-75
2024/04/03 02:07:19;;;;;;;;;;;;;;;5.17;100.00;95171.69;10421638;28;2326;-76
2024/04/03 02:12:21;;;;;;;;;;;;;;;5.29;100.00;95160.84;10414576;28;2851;-77
2024/04/03 02:17:23;;;;;;;;;;;;;;;5.17;100.00;95157.56;10413186;28;2808;-74
2024/04/03 02:22:24;;;;;;;;;;;;;;;5.17;100.00;95145.03;10414157;28;2594;-74
2024/04/03 02:27:26;;;;;;;;;;;;;;;5.06;100.00;95141.47;10417557;28;2796;-72
2024/04/03 02:32:27;;;;;;;;;;;;;;;5.07;100.00;95142.28;10404103;28;2761;-74
2024/04/03 02:37:29;;;;;;;;;;;;;;;5.11;100.00;95138.84;10417240;28;2582;-75
2024/04/03 02:42:30;;;;;;;;;;;;;;;5.10;100.00;95137.25;10419887;28;2826;-75
2024/04/03 02:47:32;;;;;;;;;;;;;;;5.14;100.00;95127.69;10430812;28;2961;-74
2024/04/03 02:52:34;;;;;;;;;;;;;;;5.09;100.00;95129.50;10412864;28;2809;-73
2024/04/03 02:57:36;;;;;;;;;;;;;;;5.03;100.00;95125.22;10416932;28;2836;-75
2024/04/03 03:02:39;;;;;;;;;;;;;;;5.06;100.00;95119.38;10413809;28;2866;-74
2024/04/03 03:07:41;;;;;;;;;;;;;;;4.99;100.00;95116.91;10412908;28;2715;-75
2024/04/03 03:12:43;;;;;;;;;;;;;;;4.92;100.00;95110.19;10416697;28;2757;-75
2024/04/03 03:17:47;;;;;;;;;;;;;;;5.02;100.00;95096.94;10414759;28;2879;-74
2024/04/03 03:22:49;;;;;;;;;;;;;;;4.98;100.00;95090.53;10414819;28;2645;-74
2024/04/03 03:27:50;;;;;;;;;;;;;;;5.07;100.00;95087.13;10404837;28;2622;-73
2024/04/03 03:32:52;;;;;;;;;;;;;;;5.04;100.00;95078.88;10403716;28;2625;-76
2024/04/03 03:37:54;;;;;;;;;;;;;;;5.15;100.00;95073.38;10405098;28;2849;-73
2024/04/03 03:42:56;;;;;;;;;;;;;;;5.12;100.00;95068.53;10418849;28;2871;-76
2024/04/03 03:47:58;;;;;;;;;;;;;;;5.17;100.00;95057.13;10408744;28;2863;-73
2024/04/03 03:52:59;;;;;;;;;;;;;;;5.19;100.00;95060.31;10401826;28;2619;-74
2024/04/03 03:58:02;;;;;;;;;;;;;;;5.18;100.00;95052.59;10417655;28;2523;-75
2024/04/03 04:03:04;;;;;;;;;;;;;;;5.08;100.00;95040.78;10405505;28;2943;-73
2024/04/03 04:08:05;;;;;;;;;;;;;;;5.06;100.00;95039.44;10417156;28;2612;-73
2024/04/03 04:13:09;;;;;;;;;;;;;;;4.98;100.00;95037.28;10415796;28;2844;-74
2024/04/03 04:18:18;;;;;;;;;;;;;;;4.91;100.00;95037.50;10408747;28;2859;-73
2024/04/03 04:23:20;;;;;;;;;;;;;;;4.84;100.00;95034.25;10418767;28;2607;-74
2024/04/03 04:28:22;;;;;;;;;;;;;;;4.76;100.00;95043.50;10416195;28;2846;-75
2024/04/03 04:33:24;;;;;;;;;;;;;;;4.72;100.00;95041.63;10409738;28;2868;-74
2024/04/03 04:38:26;;;;;;;;;;;;;;;4.70;100.00;95039.19;10416096;28;2745;-72
2024/04/03 04:43:28;;;;;;;;;;;;;;;4.73;100.00;95044.00;10425573;28;2844;-75
2024/04/03 04:48:30;;;;;;;;;;;;;;;4.79;100.00;95040.34;10421772;28;2781;-73
2024/04/03 04:53:31;;;;;;;;;;;;;;;4.81;100.00;95043.53;10437597;28;2783;-73
2024/04/03 04:58:33;;;;;;;;;;;;;;;4.93;100.00;95045.22;10415947;28;2847;-74
2024/04/03 05:03:35;;;;;;;;;;;;;;;5.11;100.00;95036.81;10402002;28;2719;-74
2024/04/03 05:08:37;;;;;;;;;;;;;;;5.20;100.00;95035.28;10417903;28;2777;-76
2024/04/03 05:13:38;;;;;;;;;;;;;;;5.29;100.00;95038.28;10418143;28;2772;-77
2024/04/03 05:18:41;;;;;;;;;;;;;;;5.36;100.00;95036.16;10416790;28;2829;-77
2024/04/03 05:23:43;;;;;;;;;;;;;;;5.51;100.00;95030.91;10414889;28;2773;-76
2024/04/03 05:28:47;;;;;;;;;;;;;;;5.65;100.00;95024.03;10401418;28;2827;-76
2024/04/03 05:33:49;;;;;;;;;;;;;;;5.80;100.00;95022.50;10402752;28;2924;-77
2024/04/03 05:38:51;;;;;;;;;;;;;;;5.99;100.00;95026.34;10423129;28;2832;-74
2024/04/03 05:43:52;;;;;;;;;;;;;;;6.23;100.00;95019.44;10429925;28;2537;-73
2024/04/03 05:48:54;;;;;;;;;;;;;;;6.62;100.00;95021.63;10425793;28;2863;-72
2024/04/03 05:53:56;;;;;;;;;;;;;;;7.00;100.00;95025.63;10434647;28;2803;-75
2024/04/03 05:58:58;;;;;;;;;;;;;;;7.28;100.00;95021.56;10434749;28;2672;-76
2024/04/03 06:04:01;;;;;;;;;;;;;;;7.78;100.00;95010.97;10416124;28;2937;-76
2024/04/03 06:09:04;;;;;;;;;;;;;;;8.05;100.00;95002.53;10417478;28;2794;-75
2024/04/03 06:14:06;;;;;;;;;;;;;;;8.33;100.00;95003.69;10411641;28;2911;-74
2024/04/03 06:19:09;;;;;;;;;;;;;;;8.32;100.00;94999.44;10419353;28;2776;-75
2024/04/03 06:24:11;;;;;;;;;;;;;;;8.60;100.00;95004.09;10415280;28;2710;-76
2024/04/03 06:29:13;;;;;;;;;;;;;;;8.75;100.00;95000.47;10398819;28;2859;-75
2024/04/03 06:34:15;;;;;;;;;;;;;;;8.78;100.00;94993.75;10396593;28;2852;-75
2024/04/03 06:39:16;;;;;;;;;;;;;;;9.19;100.00;95002.25;10414305;28;2834;-75
2024/04/03 06:44:18;;;;;;;;;;;;;;;9.21;100.00;95000.06;10412985;28;2884;-74
2024/04/03 06:54:49;;;;;;;;;;;;;;;9.98;100.00;94994.63;10444224;28;2800;-76
2024/04/03 06:59:51;;;;;;;;;;;;;;;10.13;100.00;94991.75;10418987;28;2844;-76
2024/04/03 07:04:53;;;;;;;;;;;;;;;10.43;100.00;94987.06;10419854;28;2860;-76
2024/04/03 07:09:59;;;;;;;;;;;;;;;10.70;100.00;94987.19;10422232;28;2606;-74
2024/04/03 07:15:02;;;;;;;;;;;;;;;10.79;100.00;94979.25;10418142;28;2648;-79
2024/04/03 07:20:05;;;;;;;;;;;;;;;11.18;100.00;94978.84;10406897;28;2760;-75
2024/04/03 07:25:07;;;;;;;;;;;;;;;11.40;99.37;94983.56;10423865;28;2809;-77
2024/04/03 07:30:10;;;;;;;;;;;;;;;11.51;97.27;94982.25;10421716;28;2887;-75
2024/04/03 07:35:11;;;;;;;;;;;;;;;11.74;92.48;94990.44;10416947;28;2777;-74
2024/04/03 07:40:15;;;;;;;;;;;;;;;12.05;94.77;94990.66;10419108;28;2805;-76
2024/04/03 07:45:17;;;;;;;;;;;;;;;11.99;89.86;94997.25;10416622;28;2780;-75
2024/04/03 07:50:20;;;;;;;;;;;;;;;11.94;92.05;95000.03;10385787;28;2891;-76
2024/04/03 07:55:21;;;;;;;;;;;;;;;12.04;91.12;94991.78;10389389;28;2815;-76
2024/04/03 08:00:23;;;;;;;;;;;;;;;11.94;88.34;94990.06;10416265;28;2745;-77
2024/04/03 08:05:25;;;;;;;;;;;;;;;11.90;85.72;94997.16;10420125;28;2751;-78
2024/04/03 08:10:27;;;;;;;;;;;;;;;12.12;79.30;95005.31;10412085;28;2870;-76
2024/04/03 08:15:29;;;;;;;;;;;;;;;11.97;80.76;95021.81;10403343;28;2746;-77
2024/04/03 08:20:31;;;;;;;;;;;;;;;12.04;85.29;95021.41;10419359;28;2895;-77
2024/04/03 08:25:32;;;;;;;;;;;;;;;12.55;80.94;95029.19;10407223;28;2915;-78
2024/04/03 08:30:34;;;;;;;;;;;;;;;12.45;80.31;95024.81;10421015;28;2843;-75
2024/04/03 08:35:36;;;;;;;;;;;;;;;12.44;80.78;95020.53;10415190;28;2886;-76
2024/04/03 08:40:37;;;;;;;;;;;;;;;12.50;83.11;95017.72;10413266;28;2882;-75
2024/04/03 08:45:39;;;;;;;;;;;;;;;12.68;84.57;95025.66;10396434;28;2836;-76
2024/04/03 08:50:42;;;;;;;;;;;;;;;12.92;76.93;95028.06;10418067;28;2829;-76
2024/04/03 08:55:44;;;;;;;;;;;;;;;12.68;72.77;95028.34;10414342;28;2807;-75
2024/04/03 09:00:45;;;;;;;;;;;;;;;13.10;88.64;95026.25;10415567;28;2817;-74
2024/04/03 09:05:47;;;;;;;;;;;;;;;13.67;78.01;95031.06;10412462;28;2892;-74
2024/04/03 09:10:49;;;;;;;;;;;;;;;13.60;75.91;95028.00;10410788;28;2862;-71
2024/04/03 09:15:51;;;;;;;;;;;;;;;13.76;80.44;95021.91;10416393;28;2555;-73
2024/04/03 09:20:53;;;;;;;;;;;;;;;14.03;65.98;95034.41;10412448;28;2599;-73
2024/04/03 09:25:54;;;;;;;;;;;;;;;14.48;62.68;95033.41;10414160;28;2777;-75
2024/04/03 09:30:56;;;;;;;;;;;;;;;14.26;59.12;95040.50;10429681;28;2946;-73
2024/04/03 09:35:58;;;;;;;;;;;;;;;14.60;65.06;95031.69;10432835;28;2925;-75
2024/04/03 09:41:01;;;;;;;;;;;;;;;14.85;54.96;95040.13;10417040;28;2804;-73
2024/04/03 09:46:02;;;;;;;;;;;;;;;15.29;56.00;95043.63;10398757;28;2881;-72
2024/04/03 09:51:04;;;;;;;;;;;;;;;15.17;56.70;95043.47;10401481;28;2898;-72
2024/04/03 09:56:06;;;;;;;;;;;;;;;14.83;55.12;95040.47;10424583;28;2785;-73
2024/04/03 10:01:08;;;;;;;;;;;;;;;15.21;53.07;95036.31;10413170;28;2575;-76
2024/04/03 10:06:11;;;;;;;;;;;;;;;15.50;52.92;95039.09;10415555;28;2755;-76
2024/04/03 10:11:12;;;;;;;;;;;;;;;15.46;51.88;95043.59;10413194;28;2793;-74
2024/04/03 10:16:14;;;;;;;;;;;;;;;15.75;51.88;95037.47;10409792;28;2829;-74
2024/04/03 10:21:16;;;;;;;;;;;;;;;15.99;52.69;95038.84;10416768;28;2853;-74
2024/04/03 10:26:18;;;;;;;;;;;;;;;16.08;50.33;95032.25;10415719;28;2873;-74
2024/04/03 10:31:20;;;;;;;;;;;;;;;16.13;49.89;95034.78;10415735;28;2948;-74
2024/04/03 10:36:23;;;;;;;;;;;;;;;16.40;49.51;95028.06;10411971;28;2811;-77
2024/04/03 10:41:24;;;;;;;;;;;;;;;16.65;49.30;95029.03;10411255;28;2842;-76
2024/04/03 10:46:29;;;;;;;;;;;;;;;15.95;48.69;95017.78;10413424;28;2852;-73
2024/04/03 10:51:31;;;;;;;;;;;;;;;16.27;47.22;95012.03;10434371;28;2836;-76
2024/04/03 10:56:33;;;;;;;;;;;;;;;16.36;47.66;95005.47;10411223;28;2861;-76
2024/04/03 11:01:34;;;;;;;;;;;;;;;15.81;48.23;95017.22;10412470;28;2801;-77
2024/04/03 11:06:36;;;;;;;;;;;;;;;15.49;47.53;95010.44;10394967;28;2804;-76
2024/04/03 11:11:39;;;;;;;;;;;;;;;15.72;49.84;95012.97;10411609;28;2541;-75
2024/04/03 11:16:42;;;;;;;;;;;;;;;16.04;49.40;95009.63;10411393;28;2651;-74
2024/04/03 11:21:44;;;;;;;;;;;;;;;16.24;47.44;95010.00;10412843;28;2879;-77
2024/04/03 11:26:46;;;;;;;;;;;;;;;16.29;46.78;95005.19;10409420;28;2740;-78
2024/04/03 11:31:49;;;;;;;;;;;;;;;16.43;47.96;95007.66;10411426;28;2842;-76
2024/04/03 11:36:51;;;;;;;;;;;;;;;15.67;49.92;95006.59;10413803;28;2859;-76
2024/04/03 11:41:53;;;;;;;;;;;;;;;15.07;52.55;94998.56;10425865;28;2903;-76
2024/04/03 11:46:55;;;;;;;;;;;;;;;15.74;52.08;94989.03;10415644;28;2547;-76
2024/04/03 11:51:56;;;;;;;;;;;;;;;15.22;52.88;94995.38;10405828;28;2858;-76
2024/04/03 11:56:58;;;;;;;;;;;;;;;15.23;55.08;94985.34;10416179;28;2889;-76
2024/04/03 12:02:00;;;;;;;;;;;;;;;15.54;53.26;94995.94;10417387;28;2764;-76
2024/04/03 12:07:04;;;;;;;;;;;;;;;15.70;52.45;95001.63;10398475;28;2619;-77
2024/04/03 12:12:06;;;;;;;;;;;;;;;16.65;50.98;95001.91;10415631;28;2806;-75
2024/04/03 12:17:08;;;;;;;;;;;;;;;16.07;49.43;95008.16;10416934;28;2809;-77
2024/04/03 12:22:09;;;;;;;;;;;;;;;15.87;51.60;95004.28;10415839;28;2832;-75
2024/04/03 12:27:12;;;;;;;;;;;;;;;15.67;51.14;95000.38;10416048;28;2601;-76
2024/04/03 12:32:14;;;;;;;;;;;;;;;16.10;50.29;95002.91;10413818;28;2610;-76
2024/04/03 12:37:16;;;;;;;;;;;;;;;16.93;49.55;94998.69;10415188;28;2800;-76
2024/04/03 12:42:18;;;;;;;;;;;;;;;16.40;51.10;95008.28;10429345;28;2835;-77
2024/04/03 12:47:20;;;;;;;;;;;;;;;16.89;50.19;95011.34;10416459;28;2752;-76
2024/04/03 12:52:21;;;;;;;;;;;;;;;16.43;49.97;95011.16;10404756;28;2890;-76
2024/04/03 12:57:23;;;;;;;;;;;;;;;16.20;50.97;95001.72;10418202;28;2817;-75
2024/04/03 13:02:28;;;;;;;;;;;;;;;16.88;50.85;95004.31;10396423;28;2811;-77
2024/04/03 13:07:30;;;;;;;;;;;;;;;17.65;46.87;95010.94;10411911;28;2848;-75
2024/04/03 13:12:32;;;;;;;;;;;;;;;16.75;48.77;95017.03;10411779;28;2729;-73
2024/04/03 13:17:35;;;;;;;;;;;;;;;16.54;49.74;95025.16;10430695;28;2685;-76
2024/04/03 13:22:37;;;;;;;;;;;;;;;16.62;50.51;95023.50;10413276;28;2796;-76
2024/04/03 13:27:39;;;;;;;;;;;;;;;17.50;47.42;95019.72;10411274;28;2760;-76
2024/04/03 13:32:41;;;;;;;;;;;;;;;17.66;46.90;95022.59;10416471;28;2882;-76
2024/04/03 13:37:43;;;;;;;;;;;;;;;17.80;47.34;95023.09;10414958;28;2969;-76
2024/04/03 13:42:46;;;;;;;;;;;;;;;17.27;48.42;95022.81;10415744;28;2831;-75
2024/04/03 13:47:48;;;;;;;;;;;;;;;17.08;50.09;95040.72;10413114;28;2899;-76
2024/04/03 13:52:49;;;;;;;;;;;;;;;17.17;49.75;95042.22;10413926;28;2886;-74
2024/04/03 13:57:51;;;;;;;;;;;;;;;16.86;51.24;95044.56;10427860;28;2860;-74
2024/04/03 14:02:53;;;;;;;;;;;;;;;16.15;58.68;95048.00;10410668;28;2806;-75
2024/04/03 14:07:55;;;;;;;;;;;;;;;15.73;72.91;95057.91;10404150;28;2910;-76
2024/04/03 14:12:57;;;;;;;;;;;;;;;14.49;100.00;95065.53;10408824;28;2863;-74
2024/04/03 14:18:00;;;;;;;;;;;;;;;13.63;100.00;95084.13;10412185;28;2737;-74
2024/04/03 14:23:01;;;;;;;;;;;;;;;12.89;100.00;95096.09;10427652;28;3019;-79
2024/04/03 14:28:03;;;;;;;;;;;;;;;12.83;100.00;95100.00;10412644;28;2731;-77
2024/04/03 14:33:06;;;;;;;;;;;;;;;12.58;100.00;95106.75;10429913;28;2819;-77
2024/04/03 14:38:08;;;;;;;;;;;;;;;12.21;100.00;95106.97;10413441;28;2637;-77
2024/04/03 14:43:10;;;;;;;;;;;;;;;11.95;100.00;95120.94;10434126;28;2928;-75
2024/04/03 14:48:12;;;;;;;;;;;;;;;11.44;100.00;95129.06;10409170;28;2928;-76
2024/04/03 14:53:14;;;;;;;;;;;;;;;11.33;100.00;95142.72;10412880;28;2690;-76
2024/04/03 14:58:20;;;;;;;;;;;;;;;11.07;100.00;95133.44;10402797;28;2844;-76
2024/04/03 15:03:22;;;;;;;;;;;;;;;11.06;100.00;95142.56;10414345;28;2661;-72
2024/04/03 15:08:23;;;;;;;;;;;;;;;10.79;100.00;95143.22;10420244;28;2701;-72
2024/04/03 15:13:25;;;;;;;;;;;;;;;10.72;100.00;95140.91;10416133;28;2883;-75
2024/04/03 15:18:26;;;;;;;;;;;;;;;10.60;100.00;95139.72;10397761;28;2756;-69
2024/04/03 15:23:29;;;;;;;;;;;;;;;10.37;100.00;95131.44;10418135;28;2713;-76
2024/04/03 15:28:31;;;;;;;;;;;;;;;10.30;100.00;95130.94;10412961;28;2850;-75
2024/04/03 15:33:34;;;;;;;;;;;;;;;10.59;100.00;95133.56;10393797;28;2788;-77
2024/04/03 15:38:40;;;;;;;;;;;;;;;10.64;100.00;95132.69;10406743;28;2867;-76
2024/04/03 15:43:42;;;;;;;;;;;;;;;10.58;100.00;95133.84;10428317;28;2938;-75
2024/04/03 15:48:43;;;;;;;;;;;;;;;10.34;100.00;95142.72;10412615;28;2591;-75
2024/04/03 15:53:45;;;;;;;;;;;;;;;10.26;100.00;95148.75;10411700;28;2821;-78
2024/04/03 15:58:47;;;;;;;;;;;;;;;10.24;100.00;95151.72;10399376;28;2757;-72
2024/04/03 16:03:49;;;;;;;;;;;;;;;10.01;100.00;95150.59;10421771;28;3003;-70
2024/04/03 16:08:51;;;;;;;;;;;;;;;9.83;100.00;95153.19;10416938;28;2796;-71
2024/04/03 16:13:52;;;;;;;;;;;;;;;9.82;100.00;95170.41;10416366;28;2744;-74
2024/04/03 16:18:54;;;;;;;;;;;;;;;9.69;100.00;95180.69;10417160;28;2835;-72
2024/04/03 16:23:56;;;;;;;;;;;;;;;9.67;100.00;95188.25;10418468;28;2858;-71
2024/04/03 16:28:58;;;;;;;;;;;;;;;9.61;100.00;95192.06;10422540;28;2736;-71
2024/04/03 16:33:59;;;;;;;;;;;;;;;9.44;100.00;95197.00;10418187;28;2927;-71
2024/04/03 16:39:01;;;;;;;;;;;;;;;9.45;100.00;95206.66;10427046;28;2603;-78
2024/04/03 16:44:03;;;;;;;;;;;;;;;9.36;100.00;95200.31;10411953;28;2970;-74
2024/04/03 16:49:12;;;;;;;;;;;;;;;9.37;100.00;95204.56;10400856;28;2799;-78
2024/04/03 16:54:14;;;;;;;;;;;;;;;9.25;100.00;95201.44;10394570;28;2971;-75
2024/04/03 16:59:16;;;;;;;;;;;;;;;9.19;100.00;95201.47;10411401;28;2883;-74
2024/04/03 17:04:18;;;;;;;;;;;;;;;9.17;100.00;95210.88;10410904;28;2713;-73
2024/04/03 17:09:20;;;;;;;;;;;;;;;9.12;100.00;95217.06;10396165;28;2741;-75
2024/04/03 17:14:22;;;;;;;;;;;;;;;9.07;100.00;95232.38;10409872;28;2877;-72
2024/04/03 17:19:24;;;;;;;;;;;;;;;8.94;100.00;95229.22;10410841;28;2806;-74
2024/04/03 17:24:26;;;;;;;;;;;;;;;8.90;100.00;95232.72;10413434;28;2817;-75
2024/04/03 17:29:32;;;;;;;;;;;;;;;8.96;100.00;95237.00;10408934;28;2868;-76
2024/04/03 17:34:33;;;;;;;;;;;;;;;8.90;100.00;95257.66;10443395;28;2773;-73
2024/04/03 17:39:36;;;;;;;;;;;;;;;8.77;100.00;95258.25;10415588;28;2532;-75
2024/04/03 17:44:38;;;;;;;;;;;;;;;8.65;100.00;95247.88;10410714;28;2768;-75
2024/04/03 17:49:39;;;;;;;;;;;;;;;8.59;100.00;95266.91;10411890;28;2735;-73
2024/04/03 17:54:41;;;;;;;;;;;;;;;8.53;100.00;95260.78;10394517;28;2823;-75
2024/04/03 17:59:43;;;;;;;;;;;;;;;8.54;100.00;95265.06;10407200;28;2796;-74
2024/04/03 18:04:44;;;;;;;;;;;;;;;8.51;100.00;95268.25;10410854;28;2813;-73
2024/04/03 18:09:46;;;;;;;;;;;;;;;8.81;100.00;95261.19;10417194;28;2809;-74
2024/04/03 18:14:48;;;;;;;;;;;;;;;8.91;100.00;95282.59;10392713;28;2881;-73
2024/04/03 18:19:50;;;;;;;;;;;;;;;8.92;100.00;95284.22;10371907;28;2894;-72
2024/04/03 18:24:51;;;;;;;;;;;;;;;8.64;100.00;95299.84;10362461;28;2829;-71
2024/04/03 18:29:53;;;;;;;;;;;;;;;8.60;100.00;95301.47;10363005;28;2955;-72
2024/04/03 18:34:54;;;;;;;;;;;;;;;8.53;100.00;95309.00;10373751;28;2862;-72
2024/04/03 18:39:56;;;;;;;;;;;;;;;8.49;100.00;95323.19;10371095;28;2750;-73
2024/04/03 18:44:59;;;;;;;;;;;;;;;8.43;100.00;95309.00;10369899;28;2770;-72
2024/04/03 18:50:00;;;;;;;;;;;;;;;8.43;100.00;95314.34;10368097;28;2824;-73
2024/04/03 18:55:03;;;;;;;;;;;;;;;8.48;100.00;95326.94;10369529;28;2928;-74
2024/04/03 19:00:05;;;;;;;;;;;;;;;8.56;100.00;95324.50;10375132;28;2823;-72
2024/04/03 19:05:07;;;;;;;;;;;;;;;8.62;100.00;95318.06;10373841;28;2842;-70
2024/04/03 19:10:08;;;;;;;;;;;;;;;8.61;100.00;95327.19;10370370;28;2857;-73
2024/04/03 19:15:11;;;;;;;;;;;;;;;8.69;100.00;95333.06;10374081;28;3042;-71
2024/04/03 19:20:13;;;;;;;;;;;;;;;8.65;100.00;95338.97;10373435;28;2816;-71
2024/04/03 19:25:15;;;;;;;;;;;;;;;8.63;100.00;95340.28;10357660;28;2879;-71
2024/04/03 19:30:16;;;;;;;;;;;;;;;8.53;100.00;95343.81;10357858;28;2878;-72
2024/04/03 19:35:18;;;;;;;;;;;;;;;8.59;100.00;95340.06;10357050;28;2767;-71
2024/04/03 19:40:20;;;;;;;;;;;;;;;8.57;100.00;95347.53;10368083;28;2769;-70
2024/04/03 19:45:21;;;;;;;;;;;;;;;8.48;100.00;95359.09;10374196;28;2814;-69
2024/04/03 19:50:23;;;;;;;;;;;;;;;8.53;100.00;95353.72;10389825;28;2853;-72
2024/04/03 19:55:26;;;;;;;;;;;;;;;8.49;100.00;95348.09;10375044;28;2819;-72
2024/04/03 20:00:29;;;;;;;;;;;;;;;8.46;100.00;95339.78;10374209;28;2804;-71
2024/04/03 20:05:30;;;;;;;;;;;;;;;8.44;100.00;95349.97;10370813;28;2863;-70
2024/04/03 20:10:32;;;;;;;;;;;;;;;8.31;100.00;95354.78;10373379;28;2813;-72
2024/04/03 20:15:35;;;;;;;;;;;;;;;8.33;100.00;95358.00;10403449;28;2805;-72
2024/04/03 20:20:37;;;;;;;;;;;;;;;8.49;100.00;95364.16;10430322;28;2891;-73
2024/04/03 20:25:39;;;;;;;;;;;;;;;8.58;100.00;95367.09;10407394;28;2812;-70
2024/04/03 20:30:41;;;;;;;;;;;;;;;8.58;100.00;95364.41;10409718;28;2823;-70
2024/04/03 20:35:45;;;;;;;;;;;;;;;8.68;100.00;95368.97;10410366;28;2699;-72
2024/04/03 20:40:47;;;;;;;;;;;;;;;8.82;100.00;95364.63;10409378;28;2864;-70
2024/04/03 20:45:48;;;;;;;;;;;;;;;8.93;100.00;95377.75;10412051;28;2765;-74
2024/04/03 20:50:50;;;;;;;;;;;;;;;8.99;100.00;95364.34;10420401;28;2809;-71
2024/04/03 20:55:51;;;;;;;;;;;;;;;9.04;100.00;95375.84;10419504;28;2808;-72
2024/04/03 21:00:53;;;;;;;;;;;;;;;9.02;100.00;95375.28;10410195;28;2807;-71
2024/04/03 21:05:55;;;;;;;;;;;;;;;8.98;100.00;95382.31;10407867;28;2768;-72
2024/04/03 21:10:56;;;;;;;;;;;;;;;8.88;100.00;95388.47;10410383;28;2952;-72
2024/04/03 21:16:00;;;;;;;;;;;;;;;8.68;100.00;95393.09;10315823;28;1482454;-72
2024/04/03 21:21:02;;;;;;;;;;;;;;;8.51;100.00;95396.84;10370101;28;2792;-73
2024/04/03 21:26:03;;;;;;;;;;;;;;;8.37;100.00;95407.28;10350501;28;2829;-71
2024/04/03 21:31:08;;;;;;;;;;;;;;;8.26;100.00;95404.84;10370795;28;2831;-70
2024/04/03 21:36:16;;;;;;;;;;;;;;;8.29;100.00;95401.66;10351725;28;2877;-72
2024/04/03 21:41:19;;;;;;;;;;;;;;;8.32;100.00;95393.06;10369084;28;2814;-70
2024/04/03 21:46:21;;;;;;;;;;;;;;;8.35;100.00;95395.22;10383838;28;2817;-71
2024/04/03 21:51:22;;;;;;;;;;;;;;;8.25;100.00;95403.25;10371281;28;2581;-71
2024/04/03 21:56:26;;;;;;;;;;;;;;;8.25;100.00;95395.22;10370472;28;2752;-72
2024/04/03 22:01:28;;;;;;;;;;;;;;;8.20;100.00;95389.84;10368044;28;2862;-71
2024/04/03 22:06:30;;;;;;;;;;;;;;;8.23;100.00;95389.34;10367413;28;2810;-71
2024/04/03 22:11:32;;;;;;;;;;;;;;;8.32;100.00;95382.34;10367870;28;2832;-71
2024/04/03 22:16:33;;;;;;;;;;;;;;;8.41;100.00;95394.19;10418416;28;2611;-73
2024/04/03 22:21:36;;;;;;;;;;;;;;;8.51;100.00;95382.66;10394544;28;2777;-72
2024/04/03 22:26:37;;;;;;;;;;;;;;;8.52;100.00;95387.72;10411597;28;2661;-71
2024/04/03 22:31:39;;;;;;;;;;;;;;;8.62;100.00;95382.38;10410448;28;2800;-72
2024/04/03 22:36:41;;;;;;;;;;;;;;;8.68;100.00;95383.16;10408697;28;2965;-72
2024/04/03 22:41:44;;;;;;;;;;;;;;;8.78;100.00;95379.66;10426442;28;2828;-71
2024/04/03 22:46:46;;;;;;;;;;;;;;;8.85;100.00;95374.84;10411553;28;2619;-70
2024/04/03 22:51:47;;;;;;;;;;;;;;;8.96;100.00;95381.75;10414734;28;2812;-70
2024/04/03 22:56:49;;;;;;;;;;;;;;;9.04;100.00;95378.53;10431349;28;2755;-70
2024/04/03 23:01:51;;;;;;;;;;;;;;;9.12;100.00;95375.28;10415049;28;2833;-72
2024/04/03 23:06:52;;;;;;;;;;;;;;;9.16;100.00;95381.72;10411248;28;2944;-72
2024/04/03 23:11:54;;;;;;;;;;;;;;;9.13;100.00;95381.44;10410454;28;2924;-74
2024/04/03 23:16:55;;;;;;;;;;;;;;;9.13;100.00;95387.59;10368222;28;2863;-70
2024/04/03 23:21:57;;;;;;;;;;;;;;;9.15;100.00;95398.84;10366421;28;2895;-71
2024/04/03 23:26:59;;;;;;;;;;;;;;;9.20;100.00;95393.47;10369405;28;2954;-74
2024/04/03 23:32:00;;;;;;;;;;;;;;;9.20;100.00;95393.47;10366608;28;2985;-71
2024/04/03 23:37:02;;;;;;;;;;;;;;;9.23;100.00;95396.69;10377250;28;2915;-72
2024/04/03 23:42:04;;;;;;;;;;;;;;;9.31;100.00;95393.44;10370461;28;2856;-71
2024/04/03 23:47:05;;;;;;;;;;;;;;;9.38;100.00;95388.59;10363524;28;2656;-72
2024/04/03 23:52:07;;;;;;;;;;;;;;;9.34;100.00;95379.47;10379996;28;2712;-72
2024/04/03 23:57:09;;;;;;;;;;;;;;;9.40;100.00;95373.00;10376165;28;2688;-72
